createdAt,value
2017-10-04T00:00:09.007Z,73.29
2017-10-04T00:01:09.349Z,73.39
2017-10-04T00:02:09.367Z,73
2017-10-04T00:03:09.064Z,73.29
2017-10-04T00:04:09.401Z,73.1
2017-10-04T00:05:09.421Z,73.1
2017-10-04T00:06:09.116Z,73.1
2017-10-04T00:07:09.136Z,73
2017-10-04T00:08:09.475Z,73.29
2017-10-04T00:09:09.493Z,73
2017-10-04T00:10:09.190Z,73.39
2017-10-04T00:11:09.207Z,73.07
2017-10-04T00:12:09.548Z,72.97
2017-10-04T00:13:09.241Z,73.29
2017-10-04T00:14:09.586Z,73.07
2017-10-04T00:15:09.601Z,72.87
2017-10-04T00:16:09.296Z,72.87
2017-10-04T00:17:09.636Z,73.07
2017-10-04T00:18:09.653Z,73.16
2017-10-04T00:19:09.350Z,73.19
2017-10-04T00:20:09.368Z,73.35
2017-10-04T00:21:09.387Z,73.35
2017-10-04T00:22:09.725Z,73.35
2017-10-04T00:23:09.743Z,73.25
2017-10-04T00:24:09.765Z,74.02
2017-10-04T00:25:09.457Z,73.07
2017-10-04T00:26:09.476Z,73.35
2017-10-04T00:27:09.817Z,73.58
2017-10-04T00:28:09.518Z,73.35
2017-10-04T00:29:09.851Z,73.25
2017-10-04T00:30:09.871Z,73.73
2017-10-04T00:31:09.886Z,73.63
2017-10-04T00:32:09.906Z,73.83
2017-10-04T00:33:09.923Z,73.83
2017-10-04T00:34:09.618Z,73.92
2017-10-04T00:35:09.638Z,73.44
2017-10-04T00:36:09.977Z,73.25
2017-10-04T00:37:09.673Z,73.54
2017-10-04T00:38:09.690Z,73.83
2017-10-04T00:39:09.708Z,73.44
2017-10-04T00:40:09.728Z,73.16
2017-10-04T00:41:10.064Z,73.54
2017-10-04T00:42:09.763Z,73.92
2017-10-04T00:43:10.103Z,74.02
2017-10-04T00:44:10.131Z,73.44
2017-10-04T00:45:10.137Z,73.83
2017-10-04T00:46:09.834Z,73.73
2017-10-04T00:47:09.852Z,74.11
2017-10-04T00:48:09.870Z,73.44
2017-10-04T00:49:10.206Z,74.11
2017-10-04T00:50:10.229Z,74.11
2017-10-04T00:51:09.921Z,74.21
2017-10-04T00:52:09.942Z,74.11
2017-10-04T00:53:10.287Z,74.02
2017-10-04T00:54:10.301Z,73.44
2017-10-04T00:55:10.001Z,73.73
2017-10-04T00:56:10.009Z,74.11
2017-10-04T00:57:10.353Z,73.83
2017-10-04T00:58:10.057Z,73.83
2017-10-04T00:59:10.384Z,73.92
2017-10-04T01:00:10.404Z,73.83
2017-10-04T01:01:10.098Z,74.3
2017-10-04T01:02:10.121Z,74.11
2017-10-04T01:03:10.459Z,74.02
2017-10-04T01:04:10.478Z,74.02
2017-10-04T01:05:42.246Z,73.83
2017-10-04T01:06:10.193Z,73.92
2017-10-04T01:07:10.207Z,74.4
2017-10-04T01:08:10.546Z,74.15
2017-10-04T01:09:10.247Z,73.92
2017-10-04T01:10:10.579Z,73.83
2017-10-04T01:11:10.609Z,74.11
2017-10-04T01:12:10.625Z,73.92
2017-10-04T01:13:10.638Z,73.92
2017-10-04T01:14:10.332Z,73.73
2017-10-04T01:15:10.352Z,74.3
2017-10-04T01:16:10.374Z,74.49
2017-10-04T01:17:10.705Z,74.59
2017-10-04T01:18:10.406Z,74.4
2017-10-04T01:19:10.749Z,74.49
2017-10-04T01:20:10.441Z,74.59
2017-10-04T01:21:10.776Z,74.11
2017-10-04T01:22:10.794Z,74.11
2017-10-04T01:23:10.813Z,74.3
2017-10-04T01:24:10.834Z,74.02
2017-10-04T01:25:10.546Z,74.11
2017-10-04T01:26:10.874Z,74.11
2017-10-04T01:27:10.889Z,74.3
2017-10-04T01:28:10.909Z,73.92
2017-10-04T01:29:10.601Z,73.83
2017-10-04T01:30:10.617Z,74.11
2017-10-04T01:31:10.633Z,74.59
2017-10-04T01:32:10.977Z,74.59
2017-10-04T01:33:10.998Z,74.4
2017-10-04T01:34:11.010Z,74.3
2017-10-04T01:35:10.703Z,74.59
2017-10-04T01:36:10.725Z,74.78
2017-10-04T01:37:10.741Z,74.02
2017-10-04T01:38:11.080Z,74.49
2017-10-04T01:39:11.098Z,74.21
2017-10-04T01:40:10.796Z,74.3
2017-10-04T01:41:11.132Z,73.92
2017-10-04T01:42:10.831Z,74.59
2017-10-04T01:43:11.177Z,74.11
2017-10-04T01:44:10.869Z,74.59
2017-10-04T01:45:10.887Z,74.11
2017-10-04T01:46:10.900Z,74.4
2017-10-04T01:47:10.922Z,74.69
2017-10-04T01:48:10.938Z,74.69
2017-10-04T01:49:10.953Z,75.07
2017-10-04T01:50:10.969Z,75.07
2017-10-04T01:51:11.318Z,74.3
2017-10-04T01:52:11.008Z,74.59
2017-10-04T01:53:11.029Z,74.59
2017-10-04T01:54:11.046Z,74.4
2017-10-04T01:55:11.388Z,74.88
2017-10-04T01:56:11.402Z,75.07
2017-10-04T01:57:11.415Z,74.78
2017-10-04T01:58:11.439Z,74.21
2017-10-04T01:59:11.132Z,74.49
2017-10-04T02:00:11.146Z,74.59
2017-10-04T02:01:11.167Z,74.02
2017-10-04T02:02:11.235Z,74.4
2017-10-04T02:03:11.201Z,74.98
2017-10-04T02:04:11.539Z,74.98
2017-10-04T02:05:11.243Z,74.78
2017-10-04T02:06:11.580Z,74.59
2017-10-04T02:07:11.601Z,75.26
2017-10-04T02:08:11.293Z,75.35
2017-10-04T02:09:11.631Z,75.26
2017-10-04T02:10:11.325Z,75.07
2017-10-04T02:11:11.662Z,75.16
2017-10-04T02:12:11.687Z,74.88
2017-10-04T02:13:11.379Z,74.98
2017-10-04T02:14:11.400Z,74.88
2017-10-04T02:15:11.416Z,75.07
2017-10-04T02:16:11.755Z,74.69
2017-10-04T02:17:11.769Z,74.88
2017-10-04T02:18:11.787Z,75.07
2017-10-04T02:19:11.485Z,75.07
2017-10-04T02:20:11.502Z,74.69
2017-10-04T02:21:11.839Z,75.07
2017-10-04T02:22:11.540Z,75.26
2017-10-04T02:23:11.876Z,74.69
2017-10-04T02:24:11.574Z,74.88
2017-10-04T02:25:11.592Z,74.78
2017-10-04T02:26:11.933Z,75.16
2017-10-04T02:27:11.954Z,75.26
2017-10-04T02:28:11.648Z,74.88
2017-10-04T02:29:11.665Z,74.69
2017-10-04T02:30:12.003Z,74.98
2017-10-04T02:31:12.018Z,74.88
2017-10-04T02:32:12.035Z,75.07
2017-10-04T02:33:12.059Z,75.26
2017-10-04T02:34:12.077Z,75.45
2017-10-04T02:35:12.098Z,75.35
2017-10-04T02:36:12.107Z,75.35
2017-10-04T02:37:12.128Z,75.45
2017-10-04T02:38:12.141Z,75.16
2017-10-04T02:39:12.162Z,75.35
2017-10-04T02:40:12.183Z,75.26
2017-10-04T02:41:11.877Z,74.98
2017-10-04T02:42:12.214Z,74.78
2017-10-04T02:43:12.234Z,75.26
2017-10-04T02:44:12.253Z,74.78
2017-10-04T02:45:12.274Z,75.26
2017-10-04T02:46:12.286Z,74.98
2017-10-04T02:47:12.301Z,75.07
2017-10-04T02:48:12.320Z,75.35
2017-10-04T02:49:12.015Z,75.26
2017-10-04T02:50:12.355Z,75.07
2017-10-04T02:51:12.376Z,75.16
2017-10-04T02:52:12.070Z,75.16
2017-10-04T02:53:12.411Z,75.07
2017-10-04T02:54:12.104Z,75.13
2017-10-04T02:55:12.445Z,74.78
2017-10-04T02:56:12.466Z,74.78
2017-10-04T02:57:12.481Z,74.98
2017-10-04T02:58:12.497Z,74.88
2017-10-04T02:59:12.196Z,74.78
2017-10-04T03:00:12.536Z,74.78
2017-10-04T03:01:12.552Z,74.78
2017-10-04T03:02:12.246Z,75.07
2017-10-04T03:03:12.262Z,75.03
2017-10-04T03:04:12.606Z,75.32
2017-10-04T03:05:12.297Z,74.78
2017-10-04T03:06:12.633Z,74.78
2017-10-04T03:07:12.654Z,75.03
2017-10-04T03:08:12.677Z,74.65
2017-10-04T03:09:12.370Z,75.22
2017-10-04T03:10:12.710Z,75.26
2017-10-04T03:11:12.819Z,74.93
2017-10-04T03:12:12.748Z,75.32
2017-10-04T03:13:12.762Z,74.93
2017-10-04T03:14:12.781Z,75.03
2017-10-04T03:15:12.795Z,74.93
2017-10-04T03:16:12.491Z,75.03
2017-10-04T03:17:12.832Z,75.03
2017-10-04T03:18:12.528Z,75.03
2017-10-04T03:19:12.873Z,75.03
2017-10-04T03:20:12.564Z,75.13
2017-10-04T03:21:12.579Z,75.13
2017-10-04T03:22:12.919Z,75.13
2017-10-04T03:23:12.614Z,74.93
2017-10-04T03:24:12.631Z,74.74
2017-10-04T03:25:12.651Z,74.84
2017-10-04T03:26:12.990Z,74.84
2017-10-04T03:27:13.007Z,74.84
2017-10-04T03:28:13.025Z,75.03
2017-10-04T03:29:13.046Z,74.74
2017-10-04T03:30:13.059Z,74.74
2017-10-04T03:31:13.078Z,74.74
2017-10-04T03:32:12.772Z,74.65
2017-10-04T03:33:12.790Z,75.03
2017-10-04T03:34:12.809Z,74.93
2017-10-04T03:35:13.227Z,75.32
2017-10-04T03:36:12.840Z,74.93
2017-10-04T03:37:13.226Z,74.55
2017-10-04T03:38:12.876Z,74.65
2017-10-04T03:39:13.392Z,75.03
2017-10-04T03:40:12.911Z,75.03
2017-10-04T03:41:12.929Z,75.03
2017-10-04T03:42:12.945Z,74.93
2017-10-04T03:43:12.967Z,74.84
2017-10-04T03:44:13.398Z,74.84
2017-10-04T03:45:13.396Z,74.84
2017-10-04T03:46:13.393Z,75.32
2017-10-04T03:47:13.033Z,74.93
2017-10-04T03:48:13.393Z,74.84
2017-10-04T03:49:13.183Z,75.03
2017-10-04T03:50:13.087Z,74.65
2017-10-04T03:51:13.212Z,74.74
2017-10-04T03:52:13.214Z,74.84
2017-10-04T03:53:13.236Z,75.22
2017-10-04T03:54:13.235Z,75.32
2017-10-04T03:55:13.560Z,75.51
2017-10-04T03:56:13.243Z,75.6
2017-10-04T03:57:13.540Z,74.93
2017-10-04T03:58:13.552Z,75.79
2017-10-04T03:59:13.566Z,75.6
2017-10-04T04:00:13.580Z,74.93
2017-10-04T04:01:13.380Z,75.7
2017-10-04T04:02:13.616Z,75.6
2017-10-04T04:03:13.632Z,75.42
2017-10-04T04:04:13.403Z,75.7
2017-10-04T04:05:13.676Z,75.6
2017-10-04T04:06:13.402Z,75.42
2017-10-04T04:07:13.704Z,75.6
2017-10-04T04:08:13.717Z,75.51
2017-10-04T04:09:13.415Z,75.6
2017-10-04T04:10:13.752Z,75.42
2017-10-04T04:11:13.518Z,75.51
2017-10-04T04:12:13.560Z,75.6
2017-10-04T04:13:13.808Z,75.6
2017-10-04T04:14:13.826Z,75.6
2017-10-04T04:15:13.550Z,75.79
2017-10-04T04:16:13.863Z,75.79
2017-10-04T04:17:13.878Z,75.6
2017-10-04T04:18:13.899Z,75.6
2017-10-04T04:19:13.919Z,75.32
2017-10-04T04:20:13.927Z,75.42
2017-10-04T04:21:13.949Z,75.13
2017-10-04T04:22:13.645Z,75.7
2017-10-04T04:23:13.657Z,75.32
2017-10-04T04:24:13.680Z,75.6
2017-10-04T04:25:13.698Z,75.51
2017-10-04T04:26:14.034Z,75.51
2017-10-04T04:27:13.733Z,75.51
2017-10-04T04:28:14.073Z,75.7
2017-10-04T04:29:13.768Z,75.42
2017-10-04T04:30:14.113Z,75.7
2017-10-04T04:31:13.799Z,75.7
2017-10-04T04:32:14.144Z,75.51
2017-10-04T04:33:13.831Z,75.6
2017-10-04T04:34:13.852Z,75.79
2017-10-04T04:35:13.865Z,75.7
2017-10-04T04:36:14.207Z,75.51
2017-10-04T04:37:13.899Z,75.51
2017-10-04T04:38:14.239Z,75.51
2017-10-04T04:39:13.936Z,75.42
2017-10-04T04:40:14.009Z,75.89
2017-10-04T04:41:13.968Z,76.08
2017-10-04T04:42:14.308Z,76.08
2017-10-04T04:43:14.328Z,76.08
2017-10-04T04:44:14.026Z,75.98
2017-10-04T04:45:14.041Z,75.89
2017-10-04T04:46:14.065Z,76.27
2017-10-04T04:47:14.397Z,76.18
2017-10-04T04:48:14.094Z,75.7
2017-10-04T04:49:14.109Z,75.89
2017-10-04T04:50:14.128Z,75.89
2017-10-04T04:51:14.467Z,75.89
2017-10-04T04:52:14.479Z,75.89
2017-10-04T04:53:14.182Z,75.42
2017-10-04T04:54:14.520Z,75.42
2017-10-04T04:55:14.533Z,76.08
2017-10-04T04:56:14.556Z,75.79
2017-10-04T04:57:14.567Z,75.42
2017-10-04T04:58:14.588Z,76.08
2017-10-04T04:59:14.278Z,75.98
2017-10-04T05:00:14.297Z,75.32
2017-10-04T05:01:14.316Z,75.51
2017-10-04T05:02:14.334Z,75.89
2017-10-04T05:03:14.351Z,76.08
2017-10-04T05:04:14.369Z,75.79
2017-10-04T05:05:14.388Z,76.08
2017-10-04T05:06:14.720Z,76.08
2017-10-04T05:07:14.744Z,75.89
2017-10-04T05:08:14.438Z,75.32
2017-10-04T05:09:14.779Z,75.22
2017-10-04T05:10:14.789Z,75.6
2017-10-04T05:11:14.489Z,75.6
2017-10-04T05:12:14.827Z,75.42
2017-10-04T05:13:14.844Z,75.42
2017-10-04T05:14:14.861Z,75.51
2017-10-04T05:15:14.557Z,75.42
2017-10-04T05:16:14.896Z,76.08
2017-10-04T05:17:14.592Z,76.18
2017-10-04T05:18:14.927Z,75.89
2017-10-04T05:19:14.633Z,75.6
2017-10-04T05:20:14.965Z,75.22
2017-10-04T05:21:14.976Z,75.89
2017-10-04T05:22:14.995Z,75.42
2017-10-04T05:23:14.697Z,75.7
2017-10-04T05:24:14.732Z,75.89
2017-10-04T05:25:15.049Z,75.51
2017-10-04T05:26:15.077Z,75.42
2017-10-04T05:27:14.761Z,75.89
2017-10-04T05:28:14.782Z,75.7
2017-10-04T05:29:14.799Z,75.51
2017-10-04T05:30:15.137Z,75.89
2017-10-04T05:31:15.157Z,75.6
2017-10-04T05:32:14.848Z,75.51
2017-10-04T05:33:15.189Z,75.32
2017-10-04T05:34:14.881Z,75.7
2017-10-04T05:35:14.904Z,75.6
2017-10-04T05:36:15.237Z,75.57
2017-10-04T05:37:15.256Z,75.47
2017-10-04T05:38:15.273Z,75.37
2017-10-04T05:39:14.967Z,75.47
2017-10-04T05:40:14.983Z,75.66
2017-10-04T05:41:15.324Z,75.32
2017-10-04T05:42:15.017Z,75.51
2017-10-04T05:43:15.357Z,75.6
2017-10-04T05:44:15.381Z,75.7
2017-10-04T05:45:15.070Z,75.51
2017-10-04T05:46:15.407Z,75.79
2017-10-04T05:47:15.105Z,75.89
2017-10-04T05:48:15.448Z,75.47
2017-10-04T05:49:15.141Z,75.42
2017-10-04T05:50:15.277Z,75.42
2017-10-04T05:51:15.276Z,75.6
2017-10-04T05:52:15.509Z,75.22
2017-10-04T05:53:15.529Z,75.89
2017-10-04T05:54:15.226Z,75.6
2017-10-04T05:55:15.245Z,75.6
2017-10-04T05:56:15.261Z,75.57
2017-10-04T05:57:15.600Z,75.51
2017-10-04T05:58:15.615Z,75.51
2017-10-04T05:59:15.315Z,75.6
2017-10-04T06:00:15.328Z,75.32
2017-10-04T06:01:15.345Z,75.7
2017-10-04T06:02:15.682Z,75.89
2017-10-04T06:03:15.712Z,75.7
2017-10-04T06:04:15.723Z,75.89
2017-10-04T06:05:15.412Z,75.42
2017-10-04T06:06:15.762Z,75.51
2017-10-04T06:07:15.771Z,75.89
2017-10-04T06:08:15.790Z,75.6
2017-10-04T06:09:15.803Z,75.79
2017-10-04T06:10:15.505Z,75.7
2017-10-04T06:11:15.841Z,75.79
2017-10-04T06:12:15.861Z,75.89
2017-10-04T06:13:15.548Z,75.6
2017-10-04T06:14:15.894Z,75.51
2017-10-04T06:15:15.905Z,75.22
2017-10-04T06:16:15.605Z,75.51
2017-10-04T06:17:15.623Z,75.03
2017-10-04T06:18:15.959Z,74.84
2017-10-04T06:19:15.654Z,74.93
2017-10-04T06:20:15.669Z,74.93
2017-10-04T06:21:15.686Z,75.13
2017-10-04T06:22:15.717Z,74.93
2017-10-04T06:23:16.042Z,75.03
2017-10-04T06:24:15.743Z,75.79
2017-10-04T06:25:16.078Z,75.6
2017-10-04T06:26:16.095Z,75.6
2017-10-04T06:27:16.114Z,74.65
2017-10-04T06:28:16.132Z,74.74
2017-10-04T06:29:15.828Z,74.65
2017-10-04T06:30:16.193Z,75.32
2017-10-04T06:31:15.866Z,75.03
2017-10-04T06:32:16.197Z,74.84
2017-10-04T06:33:16.223Z,75.03
2017-10-04T06:34:15.914Z,74.46
2017-10-04T06:35:16.247Z,74.84
2017-10-04T06:36:16.269Z,75.03
2017-10-04T06:37:15.967Z,75.42
2017-10-04T06:38:15.980Z,75.22
2017-10-04T06:39:16.317Z,74.74
2017-10-04T06:40:16.018Z,74.74
2017-10-04T06:41:16.358Z,75.6
2017-10-04T06:42:16.052Z,75.6
2017-10-04T06:43:16.068Z,75.6
2017-10-04T06:44:16.405Z,75.64
2017-10-04T06:45:16.102Z,75.7
2017-10-04T06:46:16.442Z,75.79
2017-10-04T06:47:16.136Z,74.84
2017-10-04T06:48:16.152Z,74.84
2017-10-04T06:49:16.492Z,75.07
2017-10-04T06:50:16.186Z,74.88
2017-10-04T06:51:16.209Z,74.84
2017-10-04T06:52:16.548Z,74.4
2017-10-04T06:53:16.561Z,74.49
2017-10-04T06:54:16.258Z,74.49
2017-10-04T06:55:16.598Z,74.49
2017-10-04T06:56:16.617Z,75.07
2017-10-04T06:57:16.312Z,75.16
2017-10-04T06:58:16.647Z,74.98
2017-10-04T06:59:16.666Z,74.59
2017-10-04T07:00:16.689Z,74.88
2017-10-04T07:01:16.711Z,74.88
2017-10-04T07:02:16.398Z,74.3
2017-10-04T07:03:16.743Z,74.78
2017-10-04T07:04:16.431Z,74.11
2017-10-04T07:05:16.769Z,74.3
2017-10-04T07:06:16.791Z,74.4
2017-10-04T07:07:16.804Z,74.4
2017-10-04T07:08:16.501Z,73.73
2017-10-04T07:09:16.846Z,73.73
2017-10-04T07:10:16.859Z,74.3
2017-10-04T07:11:16.875Z,73.83
2017-10-04T07:12:16.896Z,73.83
2017-10-04T07:13:16.906Z,73.63
2017-10-04T07:14:16.605Z,73.16
2017-10-04T07:15:16.621Z,72.97
2017-10-04T07:16:16.966Z,73.07
2017-10-04T07:17:16.656Z,73.16
2017-10-04T07:18:16.673Z,73.35
2017-10-04T07:19:17.013Z,73.25
2017-10-04T07:20:16.711Z,73.35
2017-10-04T07:21:17.045Z,73.16
2017-10-04T07:22:16.745Z,72.91
2017-10-04T07:23:16.766Z,73.35
2017-10-04T07:24:16.778Z,72.58
2017-10-04T07:25:16.797Z,72.68
2017-10-04T07:26:17.139Z,72.43
2017-10-04T07:27:17.156Z,72.24
2017-10-04T07:28:17.172Z,72.53
2017-10-04T07:29:17.192Z,72.62
2017-10-04T07:30:16.884Z,72.53
2017-10-04T07:31:17.228Z,72.05
2017-10-04T07:32:16.921Z,72.24
2017-10-04T07:33:16.940Z,72.14
2017-10-04T07:34:16.953Z,71.95
2017-10-04T07:35:17.295Z,71.86
2017-10-04T07:36:17.317Z,72.05
2017-10-04T07:37:17.006Z,71.86
2017-10-04T07:38:17.349Z,71.86
2017-10-04T07:39:17.364Z,71.09
2017-10-04T07:40:17.062Z,71.28
2017-10-04T07:41:17.080Z,71.47
2017-10-04T07:42:17.415Z,71.47
2017-10-04T07:43:17.437Z,71.57
2017-10-04T07:44:17.136Z,71.38
2017-10-04T07:45:17.471Z,71.09
2017-10-04T07:46:17.373Z,71.57
2017-10-04T07:47:17.376Z,71.28
2017-10-04T07:48:17.374Z,71.22
2017-10-04T07:49:17.687Z,71
2017-10-04T07:50:17.697Z,71.13
2017-10-04T07:51:17.697Z,71.13
2017-10-04T07:52:17.379Z,71.32
2017-10-04T07:53:17.378Z,70.46
2017-10-04T07:54:17.733Z,70.84
2017-10-04T07:55:17.731Z,70.46
2017-10-04T07:56:17.420Z,70.46
2017-10-04T07:57:17.443Z,70.75
2017-10-04T07:58:17.769Z,70.84
2017-10-04T07:59:17.764Z,70.65
2017-10-04T08:00:17.762Z,70.27
2017-10-04T08:01:17.441Z,70.56
2017-10-04T08:02:17.777Z,70.46
2017-10-04T08:03:17.792Z,69.79
2017-10-04T08:04:17.814Z,69.31
2017-10-04T08:05:17.838Z,69.79
2017-10-04T08:06:17.847Z,69.6
2017-10-04T08:07:17.541Z,69.79
2017-10-04T08:08:17.560Z,69.41
2017-10-04T08:09:17.574Z,69.5
2017-10-04T08:10:18.028Z,69.7
2017-10-04T08:11:17.612Z,69.31
2017-10-04T08:12:18.036Z,69.21
2017-10-04T08:13:18.033Z,69.6
2017-10-04T08:14:17.664Z,69.31
2017-10-04T08:15:18.006Z,69.6
2017-10-04T08:16:17.706Z,69.7
2017-10-04T08:17:17.723Z,69.5
2017-10-04T08:18:17.742Z,69.31
2017-10-04T08:19:18.076Z,68.84
2017-10-04T08:20:18.093Z,68.84
2017-10-04T08:21:17.795Z,68.55
2017-10-04T08:22:18.129Z,68.1
2017-10-04T08:23:17.829Z,67.91
2017-10-04T08:24:18.169Z,68.1
2017-10-04T08:25:18.189Z,67.91
2017-10-04T08:26:17.886Z,68.1
2017-10-04T08:27:17.901Z,68.49
2017-10-04T08:28:18.250Z,67.72
2017-10-04T08:29:18.275Z,66.96
2017-10-04T08:30:17.953Z,67.24
2017-10-04T08:31:17.972Z,67.24
2017-10-04T08:32:17.991Z,66.76
2017-10-04T08:33:18.008Z,66.86
2017-10-04T08:34:18.046Z,66.96
2017-10-04T08:35:18.369Z,66.76
2017-10-04T08:36:18.158Z,66.96
2017-10-04T08:37:18.404Z,66.8
2017-10-04T08:38:18.426Z,66.67
2017-10-04T08:39:18.437Z,67.05
2017-10-04T08:40:18.461Z,66.47
2017-10-04T08:41:18.475Z,66.7
2017-10-04T08:42:18.492Z,66.51
2017-10-04T08:43:18.516Z,66.41
2017-10-04T08:44:18.209Z,65.94
2017-10-04T08:45:18.225Z,65.84
2017-10-04T08:46:18.570Z,65.84
2017-10-04T08:47:18.592Z,66.13
2017-10-04T08:48:18.607Z,66.22
2017-10-04T08:49:18.624Z,65.74
2017-10-04T08:50:18.643Z,66.13
2017-10-04T08:51:18.343Z,65.84
2017-10-04T08:52:18.676Z,65.84
2017-10-04T08:53:18.374Z,65.65
2017-10-04T08:54:18.718Z,66.03
2017-10-04T08:55:18.741Z,66.13
2017-10-04T08:56:18.756Z,65.45
2017-10-04T08:57:18.454Z,65.94
2017-10-04T08:58:18.471Z,65.17
2017-10-04T08:59:18.486Z,65.84
2017-10-04T09:00:18.926Z,64.88
2017-10-04T09:01:18.925Z,65.45
2017-10-04T09:02:18.541Z,65.26
2017-10-04T09:03:18.924Z,65.45
2017-10-04T09:04:18.906Z,65.55
2017-10-04T09:05:18.600Z,65.55
2017-10-04T09:06:18.618Z,64.88
2017-10-04T09:07:18.961Z,65.65
2017-10-04T09:08:18.655Z,65.26
2017-10-04T09:09:18.671Z,65.74
2017-10-04T09:10:19.019Z,65.26
2017-10-04T09:11:19.031Z,64.88
2017-10-04T09:12:19.047Z,65.36
2017-10-04T09:13:19.071Z,64.88
2017-10-04T09:14:19.095Z,64.98
2017-10-04T09:15:19.103Z,64.79
2017-10-04T09:16:18.801Z,64.4
2017-10-04T09:17:19.142Z,64.4
2017-10-04T09:18:19.163Z,64.31
2017-10-04T09:19:19.178Z,64.5
2017-10-04T09:20:18.900Z,63.73
2017-10-04T09:21:19.223Z,64.22
2017-10-04T09:22:18.916Z,64.12
2017-10-04T09:23:19.260Z,63.96
2017-10-04T09:24:18.954Z,63.39
2017-10-04T09:25:18.968Z,64.25
2017-10-04T09:26:18.988Z,63.48
2017-10-04T09:27:19.328Z,64.15
2017-10-04T09:28:19.347Z,63.57
2017-10-04T09:29:19.368Z,64.05
2017-10-04T09:30:19.393Z,63.39
2017-10-04T09:31:19.407Z,63.39
2017-10-04T09:32:19.107Z,63.29
2017-10-04T09:33:19.440Z,63.19
2017-10-04T09:34:19.140Z,63.1
2017-10-04T09:35:19.475Z,63
2017-10-04T09:36:19.504Z,62.62
2017-10-04T09:37:19.516Z,62.55
2017-10-04T09:38:19.213Z,61.76
2017-10-04T09:39:19.230Z,62.23
2017-10-04T09:40:19.254Z,61.69
2017-10-04T09:41:19.269Z,61.5
2017-10-04T09:42:19.293Z,61.31
2017-10-04T09:43:19.308Z,61.6
2017-10-04T09:44:19.652Z,61.4
2017-10-04T09:45:19.344Z,61.69
2017-10-04T09:46:19.366Z,61.31
2017-10-04T09:47:19.703Z,61.21
2017-10-04T09:48:19.725Z,61.69
2017-10-04T09:49:19.747Z,61.31
2017-10-04T09:50:19.768Z,61.31
2017-10-04T09:51:19.460Z,61.11
2017-10-04T09:52:19.807Z,61.21
2017-10-04T09:53:19.816Z,61.21
2017-10-04T09:54:19.520Z,61.4
2017-10-04T09:55:19.855Z,61.02
2017-10-04T09:56:19.558Z,60.83
2017-10-04T09:57:20.109Z,60.83
2017-10-04T09:58:19.595Z,61.11
2017-10-04T09:59:19.613Z,60.73
2017-10-04T10:00:19.957Z,60.35
2017-10-04T10:01:19.675Z,60.16
2017-10-04T10:02:19.674Z,60.19
2017-10-04T10:03:20.009Z,59.87
2017-10-04T10:04:20.038Z,60.09
2017-10-04T10:05:20.049Z,60.09
2017-10-04T10:06:20.159Z,60.28
2017-10-04T10:07:19.768Z,60.38
2017-10-04T10:08:19.788Z,60.57
2017-10-04T10:09:20.128Z,59.9
2017-10-04T10:10:20.144Z,60.09
2017-10-04T10:11:20.169Z,59.61
2017-10-04T10:12:20.188Z,59.33
2017-10-04T10:13:19.885Z,58.75
2017-10-04T10:14:19.901Z,58.94
2017-10-04T10:15:19.919Z,59.23
2017-10-04T10:16:20.263Z,59.23
2017-10-04T10:17:19.958Z,59.23
2017-10-04T10:18:19.980Z,59.13
2017-10-04T10:19:20.321Z,59.33
2017-10-04T10:20:20.342Z,59.23
2017-10-04T10:21:20.360Z,59.13
2017-10-04T10:22:20.056Z,59.9
2017-10-04T10:23:20.407Z,60.38
2017-10-04T10:24:20.418Z,60.57
2017-10-04T10:25:20.440Z,60.19
2017-10-04T10:26:20.454Z,60.28
2017-10-04T10:27:20.154Z,60.57
2017-10-04T10:28:20.170Z,60.47
2017-10-04T10:29:20.195Z,59.42
2017-10-04T10:30:20.215Z,59.23
2017-10-04T10:31:20.232Z,59.13
2017-10-04T10:32:20.575Z,59.13
2017-10-04T10:33:20.597Z,59.23
2017-10-04T10:34:20.293Z,59.55
2017-10-04T10:35:20.312Z,58.94
2017-10-04T10:36:20.669Z,59.26
2017-10-04T10:37:20.349Z,59.26
2017-10-04T10:38:20.371Z,59.26
2017-10-04T10:39:20.709Z,59.26
2017-10-04T10:40:20.409Z,59.36
2017-10-04T10:41:20.755Z,59.26
2017-10-04T10:42:20.786Z,58.87
2017-10-04T10:43:20.470Z,58.39
2017-10-04T10:44:20.490Z,58.2
2017-10-04T10:45:20.506Z,57.43
2017-10-04T10:46:20.530Z,57.53
2017-10-04T10:47:20.865Z,57.43
2017-10-04T10:48:20.566Z,57.34
2017-10-04T10:49:20.584Z,56.86
2017-10-04T10:50:20.925Z,56.76
2017-10-04T10:51:20.947Z,56.38
2017-10-04T10:52:20.646Z,57.15
2017-10-04T10:53:20.986Z,56.86
2017-10-04T10:54:21.004Z,57.15
2017-10-04T10:55:21.027Z,57.06
2017-10-04T10:56:21.052Z,57.24
2017-10-04T10:57:21.063Z,56.76
2017-10-04T10:58:21.088Z,57.15
2017-10-04T10:59:20.782Z,57.15
2017-10-04T11:00:21.126Z,56.96
2017-10-04T11:01:20.823Z,56.76
2017-10-04T11:02:21.164Z,56.86
2017-10-04T11:03:21.184Z,57.24
2017-10-04T11:04:20.884Z,56.86
2017-10-04T11:05:20.903Z,56.86
2017-10-04T11:06:20.921Z,56.19
2017-10-04T11:07:21.266Z,56.29
2017-10-04T11:08:20.960Z,55.9
2017-10-04T11:09:20.982Z,56.38
2017-10-04T11:10:21.415Z,55.33
2017-10-04T11:11:21.032Z,55.42
2017-10-04T11:12:21.361Z,55.23
2017-10-04T11:13:21.392Z,55.62
2017-10-04T11:14:21.403Z,55.42
2017-10-04T11:15:21.421Z,55.13
2017-10-04T11:16:21.121Z,56.09
2017-10-04T11:17:21.473Z,55.52
2017-10-04T11:18:21.501Z,56.19
2017-10-04T11:19:21.182Z,56.29
2017-10-04T11:20:21.525Z,56.29
2017-10-04T11:21:21.546Z,56.86
2017-10-04T11:22:21.563Z,56.76
2017-10-04T11:23:21.581Z,56.67
2017-10-04T11:24:21.281Z,57.15
2017-10-04T11:25:21.620Z,57.43
2017-10-04T11:26:21.323Z,57.34
2017-10-04T11:27:21.666Z,57.15
2017-10-04T11:28:21.681Z,57.06
2017-10-04T11:29:21.383Z,57.06
2017-10-04T11:30:21.404Z,57.43
2017-10-04T11:31:21.424Z,57.34
2017-10-04T11:32:21.767Z,57.08
2017-10-04T11:33:21.464Z,56.48
2017-10-04T11:34:21.482Z,56.19
2017-10-04T11:35:21.501Z,56.29
2017-10-04T11:36:21.636Z,56.67
2017-10-04T11:37:21.935Z,56.6
2017-10-04T11:38:21.661Z,57.28
2017-10-04T11:39:21.584Z,57.24
2017-10-04T11:40:21.970Z,56.96
2017-10-04T11:41:21.668Z,57.34
2017-10-04T11:42:21.644Z,57.15
2017-10-04T11:43:21.979Z,57.15
2017-10-04T11:44:22.014Z,57.06
2017-10-04T11:45:22.041Z,56.89
2017-10-04T11:46:21.724Z,56.67
2017-10-04T11:47:21.743Z,56.6
2017-10-04T11:48:21.765Z,56.22
2017-10-04T11:49:21.784Z,56.22
2017-10-04T11:50:21.805Z,56
2017-10-04T11:51:22.150Z,56.22
2017-10-04T11:52:22.164Z,55.93
2017-10-04T11:53:21.863Z,56.12
2017-10-04T11:54:21.882Z,55.83
2017-10-04T11:55:21.904Z,55.35
2017-10-04T11:56:22.244Z,55.93
2017-10-04T11:57:21.944Z,56.12
2017-10-04T11:58:22.285Z,56.02
2017-10-04T11:59:21.987Z,55.74
2017-10-04T12:00:22.325Z,55.26
2017-10-04T12:01:22.026Z,54.68
2017-10-04T12:02:22.053Z,54.13
2017-10-04T12:03:22.385Z,53.72
2017-10-04T12:04:22.084Z,53.27
2017-10-04T12:05:22.105Z,52.79
2017-10-04T12:06:22.460Z,52.5
2017-10-04T12:07:22.464Z,51.45
2017-10-04T12:08:22.486Z,51.54
2017-10-04T12:09:22.186Z,50.96
2017-10-04T12:10:22.532Z,51.06
2017-10-04T12:11:22.231Z,51.25
2017-10-04T12:12:22.574Z,51.06
2017-10-04T12:13:22.592Z,51.06
2017-10-04T12:14:22.287Z,50.96
2017-10-04T12:15:22.634Z,50.58
2017-10-04T12:16:22.327Z,51.73
2017-10-04T12:17:22.669Z,51.73
2017-10-04T12:18:22.692Z,51.64
2017-10-04T12:19:22.394Z,51.54
2017-10-04T12:20:22.413Z,51.25
2017-10-04T12:21:22.429Z,51.64
2017-10-04T12:22:22.771Z,52.02
2017-10-04T12:23:22.473Z,51.73
2017-10-04T12:24:22.902Z,51.06
2017-10-04T12:25:22.512Z,50.87
2017-10-04T12:26:22.535Z,51.35
2017-10-04T12:27:22.872Z,50.68
2017-10-04T12:28:22.579Z,50.68
2017-10-04T12:29:22.919Z,50.1
2017-10-04T12:30:22.617Z,50.01
2017-10-04T12:31:22.635Z,50.1
2017-10-04T12:32:22.658Z,50.49
2017-10-04T12:33:22.995Z,49.72
2017-10-04T12:34:23.018Z,49.72
2017-10-04T12:35:22.773Z,49.82
2017-10-04T12:36:22.772Z,50.39
2017-10-04T12:37:23.082Z,50.56
2017-10-04T12:38:23.102Z,50.68
2017-10-04T12:39:22.803Z,50.56
2017-10-04T12:40:22.822Z,50.46
2017-10-04T12:41:23.167Z,50.46
2017-10-04T12:42:22.860Z,51.04
2017-10-04T12:43:22.882Z,50.84
2017-10-04T12:44:22.903Z,51.42
2017-10-04T12:45:23.246Z,50.94
2017-10-04T12:46:23.278Z,51.32
2017-10-04T12:47:23.284Z,51.14
2017-10-04T12:48:22.984Z,51.42
2017-10-04T12:49:23.325Z,51.23
2017-10-04T12:50:23.352Z,51.61
2017-10-04T12:51:23.366Z,51.9
2017-10-04T12:52:23.391Z,51.71
2017-10-04T12:53:23.408Z,51.81
2017-10-04T12:54:23.429Z,51.71
2017-10-04T12:55:23.451Z,51.9
2017-10-04T12:56:23.469Z,52.19